Sunday, August 31, 2014
06:22 UTC
  |  Log In   |  Register Free
Airport Search:

Henry Post Aaf (Fort Sill) Airport
(KFSI)

Henry Post Aaf (Fort Sill) Airport Diagram
No Airport Diagram Available

FAA data valid effective July 24, 2014 until September 18, 2014 (unless otherwise noted).

 
 
 
 
 
 
 
 
 
 
 
 
 
 

Current Aviation Weather for Henry Post Aaf (Fort Sill) Airport (KFSI)

The most recent METAR observation for KFSI was updated at: 0558 UTC
METAR Summary (Translated METAR)
KFSI
310558Z AUTO 18009KT 10SM CLR 26/20 A2991 RMK AO2 SLP117 T02620200 10325 20260 403570202 50000
KLAW
(5.0 nm SW from KFSI)
310553Z AUTO 17008KT 10SM CLR 26/20 A2991 RMK AO2 SLP113 T02560200 10333 20256 403670189 50003
TAF Summary (Translated TAF)
KFSI
2922/3103 21010G15KT 9000 -SHRA VCTS SCT070 BKN090CB QNH2981INS BECMG 2923/2924 19010KT 9999 NSW SCT060 QNH2981INS BECMG 3002/3003 VRB06KT 9999 FEW035 QNH2986INS BECMG 3014/3015 16012KT 9999 FEW090 QNH2983INS TX30/3021Z TN21/3012Z AMD 292215 LAST NO AMDS AFT 3003 NEXT 0213
KLAW
(5.0 nm SW from KFSI)
301726Z 3018/3118 VRB04KT P6SM SCT080 FM302000 14007KT P6SM SCT060 SCT250 FM311600 19012G21KT P6SM FEW250
  Airport Weather Conditions for KFSI

 Current Weather at FSI
79° F
Fair
South winds at 10.4 mph
FSI NOAA Radar

Pressure: 29.91 in
Humidity: 69%
Wind: South at 10.4 MPH (9 KT)
Dew Point: 68.0°F
Visibility: 10.00 mi


Airport Weather Forecast for KFSI

Translated METAR and TAF for KFSI
Translated METAR for KFSI (0616 UTC 31 August 2014)
found at http://aviationweather.gov/adds/metars/
 
METAR text: KFSI 310558Z AUTO 18009KT 10SM CLR 26/20 A2991 RMK AO2 SLP117 T02620200 10325 20260 403570202 50000
Conditions at: KFSI (FORT SILL , OK, US) observed 0558 UTC 31 August 2014
Temperature: 26.2°C (79°F)
Dewpoint: 20.0°C (68°F) [RH = 69%]
Pressure (altimeter): 29.91 inches Hg (1013.0 mb)
[Sea-level pressure: 1011.7 mb]
Winds: from the S (180 degrees) at 10 MPH (9 knots; 4.7 m/s)
Visibility: 10 or more miles (16+ km)
Ceiling: at least 12,000 feet AGL
Clouds: sky clear below 12,000 feet AGL
Weather: automated observation with no human augmentation;
there may or may not be significant weather present at this time
Translated TAF for KFSI

There is no translated TAF available for this airport

Find All Airport Services Find A Hotel Find A Rental Car Find A Golf Course Find A Restaurant $100 Hamburger



FBO's on the Field
FBO Company Facility Photos Services Transportation Aviation Fuel Prices: Prices include tax
Catering Weather Repair Courtesy Rental Type 100LL JetA JetA+ MOGAS 8087
 
Add another FBO Facility Photos Catering Weather Repair Courtesy Rental Type 100LL JetA JetA+ MOGAS 8087
Services Transportation Aviation Fuel Prices: Prices include tax
There are no FBO's currently reporting fuel at FSI. List your FBO now


GlobalAir.com Airport Resource Center model-print
model-print
model-print
model-print